sensor_id;sensor_type;location;lat;lon;timestamp;P1;durP1;ratioP1;P2;durP2;ratioP2
23555;SDS011;11956;53.184;8.578;2023-02-15T00:01:14;41.47;;;23.00;;
23555;SDS011;11956;53.184;8.578;2023-02-15T00:04:16;40.45;;;23.05;;
23555;SDS011;11956;53.184;8.578;2023-02-15T00:07:21;44.53;;;24.42;;
23555;SDS011;11956;53.184;8.578;2023-02-15T00:10:22;36.10;;;20.90;;
23555;SDS011;11956;53.184;8.578;2023-02-15T00:13:23;37.38;;;21.27;;
23555;SDS011;11956;53.184;8.578;2023-02-15T00:16:24;44.15;;;23.80;;
23555;SDS011;11956;53.184;8.578;2023-02-15T00:19:25;39.80;;;23.48;;
23555;SDS011;11956;53.184;8.578;2023-02-15T00:22:26;41.70;;;23.38;;
23555;SDS011;11956;53.184;8.578;2023-02-15T00:25:27;43.80;;;23.70;;
23555;SDS011;11956;53.184;8.578;2023-02-15T00:28:28;51.65;;;26.73;;
23555;SDS011;11956;53.184;8.578;2023-02-15T00:31:30;40.90;;;23.40;;
23555;SDS011;11956;53.184;8.578;2023-02-15T00:34:32;47.70;;;25.13;;
23555;SDS011;11956;53.184;8.578;2023-02-15T00:37:33;45.65;;;25.15;;
23555;SDS011;11956;53.184;8.578;2023-02-15T00:40:36;43.83;;;23.90;;
23555;SDS011;11956;53.184;8.578;2023-02-15T00:43:37;42.40;;;23.70;;
23555;SDS011;11956;53.184;8.578;2023-02-15T00:46:38;44.25;;;23.92;;
23555;SDS011;11956;53.184;8.578;2023-02-15T00:49:42;41.13;;;24.25;;
23555;SDS011;11956;53.184;8.578;2023-02-15T00:52:43;48.22;;;25.55;;
23555;SDS011;11956;53.184;8.578;2023-02-15T00:55:44;43.42;;;23.02;;
23555;SDS011;11956;53.184;8.578;2023-02-15T00:58:45;40.67;;;23.05;;
23555;SDS011;11956;53.184;8.578;2023-02-15T01:01:46;49.13;;;26.90;;
23555;SDS011;11956;53.184;8.578;2023-02-15T01:04:47;51.00;;;27.58;;
23555;SDS011;11956;53.184;8.578;2023-02-15T01:07:48;44.13;;;23.92;;
23555;SDS011;11956;53.184;8.578;2023-02-15T01:10:49;44.83;;;25.13;;
23555;SDS011;11956;53.184;8.578;2023-02-15T01:13:50;41.03;;;23.90;;
23555;SDS011;11956;53.184;8.578;2023-02-15T01:16:54;45.90;;;25.17;;
23555;SDS011;11956;53.184;8.578;2023-02-15T01:19:54;45.38;;;25.15;;
23555;SDS011;11956;53.184;8.578;2023-02-15T01:22:56;45.65;;;26.42;;
23555;SDS011;11956;53.184;8.578;2023-02-15T01:26:01;47.08;;;26.30;;
23555;SDS011;11956;53.184;8.578;2023-02-15T01:29:02;45.83;;;24.65;;
23555;SDS011;11956;53.184;8.578;2023-02-15T01:32:03;47.53;;;25.98;;
23555;SDS011;11956;53.184;8.578;2023-02-15T01:35:04;45.20;;;24.88;;
23555;SDS011;11956;53.184;8.578;2023-02-15T01:38:06;37.72;;;22.15;;
23555;SDS011;11956;53.184;8.578;2023-02-15T01:41:06;41.53;;;24.08;;
23555;SDS011;11956;53.184;8.578;2023-02-15T01:48:00;45.47;;;24.58;;
23555;SDS011;11956;53.184;8.578;2023-02-15T01:51:06;47.78;;;26.83;;
23555;SDS011;11956;53.184;8.578;2023-02-15T01:57:34;55.95;;;28.63;;
23555;SDS011;11956;53.184;8.578;2023-02-15T02:00:36;51.60;;;29.00;;
23555;SDS011;11956;53.184;8.578;2023-02-15T02:07:07;44.80;;;25.50;;
23555;SDS011;11956;53.184;8.578;2023-02-15T02:10:13;45.45;;;24.88;;
23555;SDS011;11956;53.184;8.578;2023-02-15T02:13:23;53.28;;;28.58;;
23555;SDS011;11956;53.184;8.578;2023-02-15T02:16:27;49.78;;;26.00;;
23555;SDS011;11956;53.184;8.578;2023-02-15T02:23:36;45.53;;;24.30;;
23555;SDS011;11956;53.184;8.578;2023-02-15T02:37:09;42.20;;;23.00;;
23555;SDS011;11956;53.184;8.578;2023-02-15T02:44:33;49.33;;;25.85;;
23555;SDS011;11956;53.184;8.578;2023-02-15T02:47:47;40.22;;;22.15;;
23555;SDS011;11956;53.184;8.578;2023-02-15T02:51:00;43.70;;;24.35;;
23555;SDS011;11956;53.184;8.578;2023-02-15T02:54:03;42.58;;;23.80;;
23555;SDS011;11956;53.184;8.578;2023-02-15T02:57:06;39.75;;;22.25;;
23555;SDS011;11956;53.184;8.578;2023-02-15T03:00:10;42.97;;;24.48;;
23555;SDS011;11956;53.184;8.578;2023-02-15T03:03:13;42.85;;;22.98;;
23555;SDS011;11956;53.184;8.578;2023-02-15T03:06:46;48.13;;;25.92;;
23555;SDS011;11956;53.184;8.578;2023-02-15T03:09:54;59.08;;;27.60;;
23555;SDS011;11956;53.184;8.578;2023-02-15T03:12:58;59.40;;;28.33;;
23555;SDS011;11956;53.184;8.578;2023-02-15T03:16:00;58.60;;;26.63;;
23555;SDS011;11956;53.184;8.578;2023-02-15T03:19:23;60.53;;;29.23;;
23555;SDS011;11956;53.184;8.578;2023-02-15T03:22:29;67.32;;;29.67;;
23555;SDS011;11956;53.184;8.578;2023-02-15T03:25:58;67.35;;;29.35;;
23555;SDS011;11956;53.184;8.578;2023-02-15T03:29:06;61.08;;;27.27;;
23555;SDS011;11956;53.184;8.578;2023-02-15T03:32:09;57.93;;;27.87;;
23555;SDS011;11956;53.184;8.578;2023-02-15T03:35:12;52.30;;;26.83;;
23555;SDS011;11956;53.184;8.578;2023-02-15T03:38:14;69.47;;;28.30;;
23555;SDS011;11956;53.184;8.578;2023-02-15T03:41:20;55.28;;;27.23;;
23555;SDS011;11956;53.184;8.578;2023-02-15T03:44:29;63.38;;;28.38;;
23555;SDS011;11956;53.184;8.578;2023-02-15T03:47:33;66.00;;;30.63;;
23555;SDS011;11956;53.184;8.578;2023-02-15T03:50:43;61.20;;;29.95;;
23555;SDS011;11956;53.184;8.578;2023-02-15T03:57:04;48.30;;;26.33;;
23555;SDS011;11956;53.184;8.578;2023-02-15T04:00:28;55.17;;;27.92;;
23555;SDS011;11956;53.184;8.578;2023-02-15T04:03:57;47.38;;;25.98;;
23555;SDS011;11956;53.184;8.578;2023-02-15T04:07:06;50.50;;;26.77;;
23555;SDS011;11956;53.184;8.578;2023-02-15T04:13:31;43.38;;;24.73;;
23555;SDS011;11956;53.184;8.578;2023-02-15T04:16:32;48.80;;;26.77;;
23555;SDS011;11956;53.184;8.578;2023-02-15T04:19:33;46.00;;;25.65;;
23555;SDS011;11956;53.184;8.578;2023-02-15T04:22:52;52.85;;;26.95;;
23555;SDS011;11956;53.184;8.578;2023-02-15T04:26:12;78.50;;;32.50;;
23555;SDS011;11956;53.184;8.578;2023-02-15T04:29:13;58.88;;;29.67;;
23555;SDS011;11956;53.184;8.578;2023-02-15T04:32:15;56.95;;;29.45;;
23555;SDS011;11956;53.184;8.578;2023-02-15T04:35:16;48.78;;;27.65;;
23555;SDS011;11956;53.184;8.578;2023-02-15T04:38:17;51.65;;;27.65;;
23555;SDS011;11956;53.184;8.578;2023-02-15T04:41:18;56.63;;;29.02;;
23555;SDS011;11956;53.184;8.578;2023-02-15T04:44:19;63.15;;;32.58;;
23555;SDS011;11956;53.184;8.578;2023-02-15T04:47:20;48.90;;;27.42;;
23555;SDS011;11956;53.184;8.578;2023-02-15T04:50:21;74.30;;;30.23;;
23555;SDS011;11956;53.184;8.578;2023-02-15T04:53:22;54.90;;;29.30;;
23555;SDS011;11956;53.184;8.578;2023-02-15T04:56:23;40.88;;;23.77;;
23555;SDS011;11956;53.184;8.578;2023-02-15T04:59:24;48.15;;;24.98;;
23555;SDS011;11956;53.184;8.578;2023-02-15T05:02:25;50.97;;;25.95;;
23555;SDS011;11956;53.184;8.578;2023-02-15T05:05:26;42.00;;;24.90;;
23555;SDS011;11956;53.184;8.578;2023-02-15T05:08:26;56.72;;;26.77;;
23555;SDS011;11956;53.184;8.578;2023-02-15T05:11:27;38.45;;;24.23;;
23555;SDS011;11956;53.184;8.578;2023-02-15T05:14:28;43.47;;;25.55;;
23555;SDS011;11956;53.184;8.578;2023-02-15T05:17:29;56.60;;;28.38;;
23555;SDS011;11956;53.184;8.578;2023-02-15T05:20:30;44.42;;;26.08;;
23555;SDS011;11956;53.184;8.578;2023-02-15T05:23:30;51.63;;;27.85;;
23555;SDS011;11956;53.184;8.578;2023-02-15T05:26:31;48.92;;;26.90;;
23555;SDS011;11956;53.184;8.578;2023-02-15T05:29:50;47.88;;;27.08;;
23555;SDS011;11956;53.184;8.578;2023-02-15T05:32:51;42.63;;;25.10;;
23555;SDS011;11956;53.184;8.578;2023-02-15T05:35:52;48.30;;;26.77;;
23555;SDS011;11956;53.184;8.578;2023-02-15T05:38:53;48.30;;;26.67;;
23555;SDS011;11956;53.184;8.578;2023-02-15T05:41:54;45.38;;;26.60;;
23555;SDS011;11956;53.184;8.578;2023-02-15T05:44:59;39.50;;;24.80;;
23555;SDS011;11956;53.184;8.578;2023-02-15T05:48:00;38.92;;;24.38;;
23555;SDS011;11956;53.184;8.578;2023-02-15T05:54:11;37.67;;;23.67;;
23555;SDS011;11956;53.184;8.578;2023-02-15T05:57:12;46.45;;;26.58;;
23555;SDS011;11956;53.184;8.578;2023-02-15T06:00:13;42.15;;;25.23;;
23555;SDS011;11956;53.184;8.578;2023-02-15T06:03:14;41.83;;;24.30;;
23555;SDS011;11956;53.184;8.578;2023-02-15T06:06:15;37.65;;;23.20;;
23555;SDS011;11956;53.184;8.578;2023-02-15T06:09:16;45.15;;;25.88;;
23555;SDS011;11956;53.184;8.578;2023-02-15T06:12:20;38.70;;;23.90;;
23555;SDS011;11956;53.184;8.578;2023-02-15T06:15:21;39.22;;;23.63;;
23555;SDS011;11956;53.184;8.578;2023-02-15T06:18:21;45.30;;;26.40;;
23555;SDS011;11956;53.184;8.578;2023-02-15T06:21:22;44.33;;;25.25;;
23555;SDS011;11956;53.184;8.578;2023-02-15T06:24:23;46.88;;;26.20;;
23555;SDS011;11956;53.184;8.578;2023-02-15T06:27:24;44.65;;;25.92;;
23555;SDS011;11956;53.184;8.578;2023-02-15T06:30:25;50.13;;;28.00;;
23555;SDS011;11956;53.184;8.578;2023-02-15T06:33:26;40.47;;;23.55;;
23555;SDS011;11956;53.184;8.578;2023-02-15T06:36:30;48.22;;;27.50;;
23555;SDS011;11956;53.184;8.578;2023-02-15T06:39:31;43.10;;;25.63;;
23555;SDS011;11956;53.184;8.578;2023-02-15T06:42:32;46.95;;;27.17;;
23555;SDS011;11956;53.184;8.578;2023-02-15T06:45:33;43.42;;;26.38;;
23555;SDS011;11956;53.184;8.578;2023-02-15T06:48:34;34.33;;;22.33;;
23555;SDS011;11956;53.184;8.578;2023-02-15T06:51:35;45.75;;;27.00;;
23555;SDS011;11956;53.184;8.578;2023-02-15T06:54:36;48.50;;;27.25;;
23555;SDS011;11956;53.184;8.578;2023-02-15T06:57:37;44.28;;;25.77;;
23555;SDS011;11956;53.184;8.578;2023-02-15T07:00:38;46.30;;;27.20;;
23555;SDS011;11956;53.184;8.578;2023-02-15T07:03:38;47.00;;;26.83;;
23555;SDS011;11956;53.184;8.578;2023-02-15T07:06:39;43.50;;;25.50;;
23555;SDS011;11956;53.184;8.578;2023-02-15T07:09:40;46.60;;;26.33;;
23555;SDS011;11956;53.184;8.578;2023-02-15T07:12:41;40.00;;;24.05;;
23555;SDS011;11956;53.184;8.578;2023-02-15T07:15:42;39.50;;;24.85;;
23555;SDS011;11956;53.184;8.578;2023-02-15T07:18:44;45.22;;;28.15;;
23555;SDS011;11956;53.184;8.578;2023-02-15T07:21:45;45.40;;;27.08;;
23555;SDS011;11956;53.184;8.578;2023-02-15T07:24:46;41.35;;;25.45;;
23555;SDS011;11956;53.184;8.578;2023-02-15T07:27:48;40.75;;;26.23;;
23555;SDS011;11956;53.184;8.578;2023-02-15T07:31:03;32.92;;;22.30;;
23555;SDS011;11956;53.184;8.578;2023-02-15T07:34:05;30.05;;;20.35;;
23555;SDS011;11956;53.184;8.578;2023-02-15T07:37:07;24.10;;;17.15;;
23555;SDS011;11956;53.184;8.578;2023-02-15T07:40:08;23.60;;;16.35;;
23555;SDS011;11956;53.184;8.578;2023-02-15T07:43:09;22.25;;;16.55;;
23555;SDS011;11956;53.184;8.578;2023-02-15T07:46:12;19.17;;;14.45;;
23555;SDS011;11956;53.184;8.578;2023-02-15T07:49:15;16.85;;;13.13;;
23555;SDS011;11956;53.184;8.578;2023-02-15T07:52:17;18.23;;;12.40;;
23555;SDS011;11956;53.184;8.578;2023-02-15T07:55:17;16.42;;;11.38;;
23555;SDS011;11956;53.184;8.578;2023-02-15T07:58:19;15.70;;;11.68;;
23555;SDS011;11956;53.184;8.578;2023-02-15T08:01:21;16.05;;;12.30;;
23555;SDS011;11956;53.184;8.578;2023-02-15T08:04:27;13.50;;;11.07;;
23555;SDS011;11956;53.184;8.578;2023-02-15T08:07:28;17.23;;;11.65;;
23555;SDS011;11956;53.184;8.578;2023-02-15T08:10:29;13.48;;;10.68;;
23555;SDS011;11956;53.184;8.578;2023-02-15T08:13:50;13.95;;;10.40;;
23555;SDS011;11956;53.184;8.578;2023-02-15T08:16:55;14.32;;;10.02;;
23555;SDS011;11956;53.184;8.578;2023-02-15T08:19:59;11.77;;;10.00;;
23555;SDS011;11956;53.184;8.578;2023-02-15T08:23:00;11.07;;;9.30;;
23555;SDS011;11956;53.184;8.578;2023-02-15T08:26:01;12.52;;;9.98;;
23555;SDS011;11956;53.184;8.578;2023-02-15T08:29:03;12.30;;;9.68;;
23555;SDS011;11956;53.184;8.578;2023-02-15T08:32:05;11.77;;;9.20;;
23555;SDS011;11956;53.184;8.578;2023-02-15T08:35:09;12.20;;;10.38;;
23555;SDS011;11956;53.184;8.578;2023-02-15T08:38:09;11.40;;;9.55;;
23555;SDS011;11956;53.184;8.578;2023-02-15T08:42:11;12.07;;;9.93;;
23555;SDS011;11956;53.184;8.578;2023-02-15T08:44:46;11.75;;;9.50;;
23555;SDS011;11956;53.184;8.578;2023-02-15T08:47:50;13.40;;;10.27;;
23555;SDS011;11956;53.184;8.578;2023-02-15T08:50:51;11.65;;;10.07;;
23555;SDS011;11956;53.184;8.578;2023-02-15T08:53:53;15.65;;;11.38;;
23555;SDS011;11956;53.184;8.578;2023-02-15T08:56:56;11.55;;;9.75;;
23555;SDS011;11956;53.184;8.578;2023-02-15T08:59:57;11.95;;;10.20;;
23555;SDS011;11956;53.184;8.578;2023-02-15T09:02:58;12.95;;;10.55;;
23555;SDS011;11956;53.184;8.578;2023-02-15T09:06:00;13.35;;;10.45;;
23555;SDS011;11956;53.184;8.578;2023-02-15T09:09:01;14.23;;;11.40;;
23555;SDS011;11956;53.184;8.578;2023-02-15T09:12:03;13.63;;;11.35;;
23555;SDS011;11956;53.184;8.578;2023-02-15T09:15:05;13.43;;;11.18;;
23555;SDS011;11956;53.184;8.578;2023-02-15T09:18:06;14.80;;;10.77;;
23555;SDS011;11956;53.184;8.578;2023-02-15T09:21:11;13.88;;;12.32;;
23555;SDS011;11956;53.184;8.578;2023-02-15T09:24:16;13.23;;;11.00;;
23555;SDS011;11956;53.184;8.578;2023-02-15T09:27:17;13.70;;;12.20;;
23555;SDS011;11956;53.184;8.578;2023-02-15T09:30:18;16.33;;;11.80;;
23555;SDS011;11956;53.184;8.578;2023-02-15T09:33:20;14.35;;;12.38;;
23555;SDS011;11956;53.184;8.578;2023-02-15T09:39:28;17.45;;;12.20;;
23555;SDS011;11956;53.184;8.578;2023-02-15T09:42:36;16.27;;;11.80;;
23555;SDS011;11956;53.184;8.578;2023-02-15T09:46:06;14.00;;;11.52;;
23555;SDS011;11956;53.184;8.578;2023-02-15T09:53:29;15.43;;;11.55;;
23555;SDS011;11956;53.184;8.578;2023-02-15T10:00:43;13.77;;;11.57;;
23555;SDS011;11956;53.184;8.578;2023-02-15T10:07:00;14.30;;;12.35;;
23555;SDS011;11956;53.184;8.578;2023-02-15T10:10:47;16.85;;;12.70;;
23555;SDS011;11956;53.184;8.578;2023-02-15T10:18:22;15.40;;;12.73;;
23555;SDS011;11956;53.184;8.578;2023-02-15T10:21:50;13.45;;;11.88;;
23555;SDS011;11956;53.184;8.578;2023-02-15T10:31:52;15.65;;;12.73;;
23555;SDS011;11956;53.184;8.578;2023-02-15T10:35:20;16.27;;;13.18;;
23555;SDS011;11956;53.184;8.578;2023-02-15T10:38:40;16.13;;;13.70;;
23555;SDS011;11956;53.184;8.578;2023-02-15T10:42:10;15.07;;;13.35;;
23555;SDS011;11956;53.184;8.578;2023-02-15T10:59:33;27.77;;;20.25;;
23555;SDS011;11956;53.184;8.578;2023-02-15T11:09:10;28.52;;;20.98;;
23555;SDS011;11956;53.184;8.578;2023-02-15T11:12:16;30.77;;;21.30;;
23555;SDS011;11956;53.184;8.578;2023-02-15T11:15:26;28.83;;;21.92;;
23555;SDS011;11956;53.184;8.578;2023-02-15T11:19:01;32.17;;;23.13;;
23555;SDS011;11956;53.184;8.578;2023-02-15T11:22:09;33.55;;;23.50;;
23555;SDS011;11956;53.184;8.578;2023-02-15T11:25:44;33.35;;;23.73;;
23555;SDS011;11956;53.184;8.578;2023-02-15T11:28:39;35.13;;;24.17;;
23555;SDS011;11956;53.184;8.578;2023-02-15T11:31:55;33.65;;;24.33;;
23555;SDS011;11956;53.184;8.578;2023-02-15T11:38:12;35.47;;;24.00;;
23555;SDS011;11956;53.184;8.578;2023-02-15T11:41:21;35.63;;;23.45;;
23555;SDS011;11956;53.184;8.578;2023-02-15T11:44:32;33.97;;;24.33;;
23555;SDS011;11956;53.184;8.578;2023-02-15T11:47:37;34.85;;;23.90;;
23555;SDS011;11956;53.184;8.578;2023-02-15T11:50:38;35.00;;;24.42;;
23555;SDS011;11956;53.184;8.578;2023-02-15T11:53:41;34.45;;;25.48;;
23555;SDS011;11956;53.184;8.578;2023-02-15T11:56:43;35.83;;;24.88;;
23555;SDS011;11956;53.184;8.578;2023-02-15T11:59:49;37.92;;;25.35;;
23555;SDS011;11956;53.184;8.578;2023-02-15T12:03:12;36.33;;;26.47;;
23555;SDS011;11956;53.184;8.578;2023-02-15T12:06:51;43.00;;;28.60;;
23555;SDS011;11956;53.184;8.578;2023-02-15T12:10:26;41.38;;;29.02;;
23555;SDS011;11956;53.184;8.578;2023-02-15T12:13:32;43.60;;;29.00;;
23555;SDS011;11956;53.184;8.578;2023-02-15T12:16:34;42.00;;;28.17;;
23555;SDS011;11956;53.184;8.578;2023-02-15T12:19:52;45.13;;;30.15;;
23555;SDS011;11956;53.184;8.578;2023-02-15T12:23:04;43.50;;;30.15;;
23555;SDS011;11956;53.184;8.578;2023-02-15T12:26:12;42.10;;;29.50;;
23555;SDS011;11956;53.184;8.578;2023-02-15T12:29:17;41.28;;;29.42;;
23555;SDS011;11956;53.184;8.578;2023-02-15T12:32:27;44.40;;;30.23;;
23555;SDS011;11956;53.184;8.578;2023-02-15T12:35:32;43.90;;;30.67;;
23555;SDS011;11956;53.184;8.578;2023-02-15T12:38:35;41.70;;;30.45;;
23555;SDS011;11956;53.184;8.578;2023-02-15T12:41:37;45.92;;;32.10;;
23555;SDS011;11956;53.184;8.578;2023-02-15T12:44:58;44.45;;;31.38;;
23555;SDS011;11956;53.184;8.578;2023-02-15T12:51:13;50.13;;;32.47;;
23555;SDS011;11956;53.184;8.578;2023-02-15T12:54:29;46.63;;;31.55;;
23555;SDS011;11956;53.184;8.578;2023-02-15T12:57:38;48.23;;;31.60;;
23555;SDS011;11956;53.184;8.578;2023-02-15T13:00:39;52.25;;;32.17;;
23555;SDS011;11956;53.184;8.578;2023-02-15T13:04:03;48.90;;;31.98;;
23555;SDS011;11956;53.184;8.578;2023-02-15T13:07:04;48.83;;;31.85;;
23555;SDS011;11956;53.184;8.578;2023-02-15T13:10:19;47.22;;;31.58;;
23555;SDS011;11956;53.184;8.578;2023-02-15T13:13:26;45.83;;;31.90;;
23555;SDS011;11956;53.184;8.578;2023-02-15T13:16:31;46.50;;;32.17;;
23555;SDS011;11956;53.184;8.578;2023-02-15T13:19:42;58.45;;;37.15;;
23555;SDS011;11956;53.184;8.578;2023-02-15T13:22:47;53.45;;;35.65;;
23555;SDS011;11956;53.184;8.578;2023-02-15T13:25:59;51.60;;;35.10;;
23555;SDS011;11956;53.184;8.578;2023-02-15T13:29:48;72.40;;;46.47;;
23555;SDS011;11956;53.184;8.578;2023-02-15T13:32:32;62.15;;;41.45;;
23555;SDS011;11956;53.184;8.578;2023-02-15T13:35:42;52.58;;;36.60;;
23555;SDS011;11956;53.184;8.578;2023-02-15T13:39:22;47.60;;;33.00;;
23555;SDS011;11956;53.184;8.578;2023-02-15T13:42:36;54.97;;;36.83;;
23555;SDS011;11956;53.184;8.578;2023-02-15T13:45:52;50.35;;;34.25;;
23555;SDS011;11956;53.184;8.578;2023-02-15T14:21:53;51.08;;;32.50;;
23555;SDS011;11956;53.184;8.578;2023-02-15T14:25:05;50.00;;;31.23;;
23555;SDS011;11956;53.184;8.578;2023-02-15T14:31:35;57.15;;;32.35;;
23555;SDS011;11956;53.184;8.578;2023-02-15T14:48:33;49.25;;;30.30;;
23555;SDS011;11956;53.184;8.578;2023-02-15T14:57:55;48.95;;;32.13;;
23555;SDS011;11956;53.184;8.578;2023-02-15T15:01:07;52.80;;;32.42;;
23555;SDS011;11956;53.184;8.578;2023-02-15T15:04:14;50.67;;;32.50;;
23555;SDS011;11956;53.184;8.578;2023-02-15T15:10:54;50.10;;;32.58;;
23555;SDS011;11956;53.184;8.578;2023-02-15T15:13:56;47.10;;;30.80;;
23555;SDS011;11956;53.184;8.578;2023-02-15T15:17:00;48.47;;;30.73;;
23555;SDS011;11956;53.184;8.578;2023-02-15T15:23:41;48.30;;;29.73;;
23555;SDS011;11956;53.184;8.578;2023-02-15T15:26:44;44.97;;;29.35;;
23555;SDS011;11956;53.184;8.578;2023-02-15T15:29:50;45.70;;;29.67;;
23555;SDS011;11956;53.184;8.578;2023-02-15T15:39:52;45.70;;;28.08;;
23555;SDS011;11956;53.184;8.578;2023-02-15T15:50:12;50.17;;;30.80;;
23555;SDS011;11956;53.184;8.578;2023-02-15T15:53:18;47.50;;;28.60;;
23555;SDS011;11956;53.184;8.578;2023-02-15T15:56:26;44.03;;;27.70;;
23555;SDS011;11956;53.184;8.578;2023-02-15T15:59:32;42.70;;;28.30;;
23555;SDS011;11956;53.184;8.578;2023-02-15T16:02:34;49.22;;;29.70;;
23555;SDS011;11956;53.184;8.578;2023-02-15T16:05:49;47.85;;;28.73;;
23555;SDS011;11956;53.184;8.578;2023-02-15T16:08:54;55.33;;;31.02;;
23555;SDS011;11956;53.184;8.578;2023-02-15T16:11:56;50.25;;;29.63;;
23555;SDS011;11956;53.184;8.578;2023-02-15T16:15:13;50.22;;;29.45;;
23555;SDS011;11956;53.184;8.578;2023-02-15T16:18:25;46.70;;;28.02;;
23555;SDS011;11956;53.184;8.578;2023-02-15T16:21:31;45.53;;;29.75;;
23555;SDS011;11956;53.184;8.578;2023-02-15T16:28:17;52.80;;;29.42;;
23555;SDS011;11956;53.184;8.578;2023-02-15T16:31:20;46.30;;;27.83;;
23555;SDS011;11956;53.184;8.578;2023-02-15T16:34:22;45.72;;;27.58;;
23555;SDS011;11956;53.184;8.578;2023-02-15T16:37:26;46.88;;;28.25;;
23555;SDS011;11956;53.184;8.578;2023-02-15T16:40:35;50.97;;;28.60;;
23555;SDS011;11956;53.184;8.578;2023-02-15T16:47:04;51.63;;;31.67;;
23555;SDS011;11956;53.184;8.578;2023-02-15T16:50:23;47.42;;;27.92;;
23555;SDS011;11956;53.184;8.578;2023-02-15T16:53:33;47.67;;;28.52;;
23555;SDS011;11956;53.184;8.578;2023-02-15T16:56:34;47.92;;;28.30;;
23555;SDS011;11956;53.184;8.578;2023-02-15T16:59:39;47.53;;;31.27;;
23555;SDS011;11956;53.184;8.578;2023-02-15T17:02:53;47.42;;;30.52;;
23555;SDS011;11956;53.184;8.578;2023-02-15T17:06:04;55.28;;;33.13;;
23555;SDS011;11956;53.184;8.578;2023-02-15T17:09:29;54.40;;;32.13;;
23555;SDS011;11956;53.184;8.578;2023-02-15T17:19:03;51.05;;;29.92;;
23555;SDS011;11956;53.184;8.578;2023-02-15T17:22:20;53.53;;;30.90;;
23555;SDS011;11956;53.184;8.578;2023-02-15T17:25:37;52.10;;;30.35;;
23555;SDS011;11956;53.184;8.578;2023-02-15T17:28:40;53.22;;;32.78;;
23555;SDS011;11956;53.184;8.578;2023-02-15T17:31:48;55.03;;;31.40;;
23555;SDS011;11956;53.184;8.578;2023-02-15T17:38:01;56.78;;;32.85;;
23555;SDS011;11956;53.184;8.578;2023-02-15T17:41:19;48.25;;;30.17;;
23555;SDS011;11956;53.184;8.578;2023-02-15T17:44:20;51.75;;;30.83;;
23555;SDS011;11956;53.184;8.578;2023-02-15T17:47:22;51.17;;;31.98;;
23555;SDS011;11956;53.184;8.578;2023-02-15T17:50:26;48.95;;;30.55;;
23555;SDS011;11956;53.184;8.578;2023-02-15T17:53:28;53.58;;;32.92;;
23555;SDS011;11956;53.184;8.578;2023-02-15T17:56:29;48.50;;;32.10;;
23555;SDS011;11956;53.184;8.578;2023-02-15T17:59:30;49.38;;;29.50;;
23555;SDS011;11956;53.184;8.578;2023-02-15T18:02:31;46.15;;;29.13;;
23555;SDS011;11956;53.184;8.578;2023-02-15T18:05:53;45.95;;;29.02;;
23555;SDS011;11956;53.184;8.578;2023-02-15T18:09:14;47.10;;;29.00;;
23555;SDS011;11956;53.184;8.578;2023-02-15T18:12:37;50.58;;;29.58;;
23555;SDS011;11956;53.184;8.578;2023-02-15T18:15:38;46.47;;;28.95;;
23555;SDS011;11956;53.184;8.578;2023-02-15T18:18:39;46.20;;;29.15;;
23555;SDS011;11956;53.184;8.578;2023-02-15T18:21:41;50.88;;;33.78;;
23555;SDS011;11956;53.184;8.578;2023-02-15T18:24:42;49.58;;;29.45;;
23555;SDS011;11956;53.184;8.578;2023-02-15T18:27:44;48.00;;;29.58;;
23555;SDS011;11956;53.184;8.578;2023-02-15T18:30:45;48.60;;;29.25;;
23555;SDS011;11956;53.184;8.578;2023-02-15T18:33:47;47.75;;;29.98;;
23555;SDS011;11956;53.184;8.578;2023-02-15T18:36:50;49.45;;;28.95;;
23555;SDS011;11956;53.184;8.578;2023-02-15T18:39:51;46.83;;;29.48;;
23555;SDS011;11956;53.184;8.578;2023-02-15T18:42:55;46.35;;;29.25;;
23555;SDS011;11956;53.184;8.578;2023-02-15T18:45:56;47.70;;;30.27;;
23555;SDS011;11956;53.184;8.578;2023-02-15T18:48:57;49.10;;;30.45;;
23555;SDS011;11956;53.184;8.578;2023-02-15T18:51:58;51.33;;;30.63;;
23555;SDS011;11956;53.184;8.578;2023-02-15T18:55:01;49.42;;;29.65;;
23555;SDS011;11956;53.184;8.578;2023-02-15T18:58:24;48.88;;;30.55;;
23555;SDS011;11956;53.184;8.578;2023-02-15T19:01:27;72.72;;;37.80;;
23555;SDS011;11956;53.184;8.578;2023-02-15T19:04:27;49.60;;;30.92;;
23555;SDS011;11956;53.184;8.578;2023-02-15T19:07:28;53.47;;;32.28;;
23555;SDS011;11956;53.184;8.578;2023-02-15T19:10:31;49.00;;;29.90;;
23555;SDS011;11956;53.184;8.578;2023-02-15T19:13:33;48.45;;;29.75;;
23555;SDS011;11956;53.184;8.578;2023-02-15T19:16:34;47.78;;;30.50;;
23555;SDS011;11956;53.184;8.578;2023-02-15T19:19:36;50.75;;;29.80;;
23555;SDS011;11956;53.184;8.578;2023-02-15T19:22:37;52.70;;;31.73;;
23555;SDS011;11956;53.184;8.578;2023-02-15T19:25:38;50.72;;;31.80;;
23555;SDS011;11956;53.184;8.578;2023-02-15T19:28:40;48.45;;;30.35;;
23555;SDS011;11956;53.184;8.578;2023-02-15T19:31:41;52.65;;;30.73;;
23555;SDS011;11956;53.184;8.578;2023-02-15T19:34:42;54.58;;;31.30;;
23555;SDS011;11956;53.184;8.578;2023-02-15T19:37:43;49.75;;;30.73;;
23555;SDS011;11956;53.184;8.578;2023-02-15T19:40:49;46.17;;;29.77;;
23555;SDS011;11956;53.184;8.578;2023-02-15T19:43:52;48.45;;;30.10;;
23555;SDS011;11956;53.184;8.578;2023-02-15T19:46:55;51.42;;;30.48;;
23555;SDS011;11956;53.184;8.578;2023-02-15T19:49:56;55.50;;;32.75;;
23555;SDS011;11956;53.184;8.578;2023-02-15T19:53:02;54.28;;;32.67;;
23555;SDS011;11956;53.184;8.578;2023-02-15T19:56:03;54.42;;;32.80;;
23555;SDS011;11956;53.184;8.578;2023-02-15T19:59:04;55.95;;;33.53;;
23555;SDS011;11956;53.184;8.578;2023-02-15T20:02:05;55.65;;;32.03;;
23555;SDS011;11956;53.184;8.578;2023-02-15T20:05:06;51.35;;;31.15;;
23555;SDS011;11956;53.184;8.578;2023-02-15T20:08:17;54.05;;;31.73;;
23555;SDS011;11956;53.184;8.578;2023-02-15T20:11:22;53.85;;;31.88;;
23555;SDS011;11956;53.184;8.578;2023-02-15T20:14:23;54.05;;;31.75;;
23555;SDS011;11956;53.184;8.578;2023-02-15T20:17:24;54.40;;;32.97;;
23555;SDS011;11956;53.184;8.578;2023-02-15T20:20:27;53.90;;;33.67;;
23555;SDS011;11956;53.184;8.578;2023-02-15T20:23:34;53.50;;;32.60;;
23555;SDS011;11956;53.184;8.578;2023-02-15T20:26:36;54.17;;;33.92;;
23555;SDS011;11956;53.184;8.578;2023-02-15T20:29:36;56.25;;;33.40;;
23555;SDS011;11956;53.184;8.578;2023-02-15T20:32:37;53.42;;;31.85;;
23555;SDS011;11956;53.184;8.578;2023-02-15T20:35:38;53.35;;;32.17;;
23555;SDS011;11956;53.184;8.578;2023-02-15T20:38:40;60.25;;;34.70;;
23555;SDS011;11956;53.184;8.578;2023-02-15T20:41:41;58.45;;;33.85;;
23555;SDS011;11956;53.184;8.578;2023-02-15T20:44:46;62.55;;;36.92;;
23555;SDS011;11956;53.184;8.578;2023-02-15T20:47:48;63.58;;;37.65;;
23555;SDS011;11956;53.184;8.578;2023-02-15T20:50:51;61.58;;;35.33;;
23555;SDS011;11956;53.184;8.578;2023-02-15T20:53:57;57.38;;;34.70;;
23555;SDS011;11956;53.184;8.578;2023-02-15T20:56:58;62.67;;;36.55;;
23555;SDS011;11956;53.184;8.578;2023-02-15T20:59:59;55.28;;;33.63;;
23555;SDS011;11956;53.184;8.578;2023-02-15T21:03:00;63.20;;;36.10;;
23555;SDS011;11956;53.184;8.578;2023-02-15T21:06:01;55.40;;;33.42;;
23555;SDS011;11956;53.184;8.578;2023-02-15T21:09:02;62.00;;;37.38;;
23555;SDS011;11956;53.184;8.578;2023-02-15T21:12:03;63.38;;;36.13;;